Russell, Canada
Current Conditions -  °F | °C
As of 5:00 PM on Saturday 25 Oct 2014 (Local Time) from CYDN Reporting Station
Clear Clear  
Wind Chill: 55°   Ceiling: Unl
Heat Index: 55°   Visibility: 9mi
Dew Point: 27°   Wind: 18mph
Humidity: 33%   Direction: 290°WNW
Pressure: 29.97"   Gusts: 32mph
Location:  50.78°N, 101.28°W
Report Text: CYDN 252200Z AUTO 29016G28KT 9SM CLR 13/M03 A2997 RMK SLP158
Loading
Personal Weather Stations






























Interactive Weather Map
Tropical Storm Tracking
New forecast layout! Learn more

10-Day Weather Forecast

Advertisements
Track Severe Weather on mobile